Portada
METAR-TAF:

METAR-TAF

Aeroports :

Jefferson City Memorial Airport

Jefferson City, Missouri, Estats Units d'Amèrica

latitud: 38-35-40N, longitud: 092-09-21W, altitud: 167 m

Observació

L'informe es va fer fa 25 minuts, a les 07:53 UTC
Vent calma
Temperatura 6°C
Humitat 81%
Pressió 1022 hPa
Visibilitat: 16.1 km
Cel clar

METAR: KJEF 300753Z AUTO 00000KT 10SM CLR 06/03 A3019 RMK AO2 SLP212 T00610028

Hora: 03:18 (08:18 UTC)


TAF: manca

Observacions i pronòstics meteorològics de més de 4000 aeroports (METAR i TAF).

Les estacions disponibles són els punts grocs i vermells al mapa.

Posi el ratolí al punt desitjat per veure el nom de l'estació.

Feu clic per veure les observacions i els pronòstics meteorològics.

Per canviar el mapa: feu clic els botons verds amb una creu de color negre per apropar; al botó verd amb un guió per allunyar la imatge; o en les fletxes verdes per a mapes adjacents.


METAR-TAF: